Seaspan Chiwan — VRBH3 — position and weather

sailwx.info

Track history (hours):
 
Tides and Currents Weather Stations Pressure Air Temp Water Temp Dewpoint Dewpoint Depression Visibility Wind Speed Wind Dir Waves Ship Positions

Seaspan Chiwan

Last reported at 2015-Apr-21 20:33 UTC. Time now 2015-Apr-21 21:01 UTC.
Position N 38°60' E 009°27'.

Length 260 m; draft 9.4 m.

Type: Cargo ship. MMSI: 477014500.

Date/timePositionNaut miles runAvg speedWind from/ knotsBaromVisibWave heightAir tempDewpointWater temp
2015-Apr-21 20:33N 38°60' E 009°27'1514.8
2015-Apr-21 19:33N 39°06' E 009°11'8 7.9
2015-Apr-21 18:31N 39°13' E 009°04'0 0.0
2015-Apr-21 17:31N 39°13' E 009°04'0 0.0
2015-Apr-21 16:31N 39°13' E 009°04'0 0.0
2015-Apr-21 15:28N 39°13' E 009°04'0 0.0
2015-Apr-21 14:31N 39°13' E 009°04'0 0.0
2015-Apr-21 13:31N 39°13' E 009°04'0 0.0
2015-Apr-21 12:31N 39°13' E 009°04'0 0.0
2015-Apr-21 11:31N 39°13' E 009°04'0 0.0
2015-Apr-21 10:31N 39°13' E 009°04'0 0.0
2015-Apr-21 09:31N 39°13' E 009°04'0 0.0
2015-Apr-21 08:31N 39°13' E 009°04'0 0.0
2015-Apr-21 07:31N 39°13' E 009°04'0 0.0
2015-Apr-21 06:31N 39°13' E 009°04'0 0.0
2015-Apr-21 05:31N 39°13' E 009°04'0 0.0
2015-Apr-21 04:31N 39°13' E 009°04'0 0.0
2015-Apr-21 03:33N 39°13' E 009°04'0 0.3
2015-Apr-21 02:33N 39°13' E 009°04'6 6.3
2015-Apr-21 01:33N 39°07' E 009°07'1313.3
2015-Apr-21 00:33N 38°54' E 009°04'1616.4
2015-Apr-20 23:33N 38°41' E 008°51'1816.5
2015-Apr-20 22:28N 38°37' E 008°29'1817.9
2015-Apr-20 21:27N 38°38' E 008°06'20618.9
2015-Apr-20 10:33N 38°58' E 003°43'1919.0
2015-Apr-20 09:33N 38°60' E 003°18'1919.4
2015-Apr-20 08:33N 39°03' E 002°54'1918.9
2015-Apr-20 07:33N 39°07' E 002°30'1919.1
2015-Apr-20 06:33N 39°11' E 002°06'1919.1
2015-Apr-20 05:33N 39°15' E 001°42'1919.0
2015-Apr-20 04:33N 39°17' E 001°17'1918.9
2015-Apr-20 03:33N 39°18' E 000°53'4319.4
2015-Apr-20 01:20N 39°24' W 000°02'810.0
2015-Apr-20 00:32N 39°24' W 000°12'6 5.7
2015-Apr-19 23:33N 39°27' W 000°19'0 0.1
2015-Apr-19 22:33N 39°27' W 000°19'0 0.0
2015-Apr-19 21:33N 39°27' W 000°19'0 0.0
2015-Apr-19 20:33N 39°27' W 000°19'0 0.0
2015-Apr-19 19:30N 39°27' W 000°19'0 0.0
2015-Apr-19 18:33N 39°27' W 000°19'0 0.0
2015-Apr-19 17:33N 39°27' W 000°19'0 0.0
2015-Apr-19 16:33N 39°27' W 000°19'0 0.0
2015-Apr-19 15:33N 39°27' W 000°19'0 0.0
2015-Apr-19 14:33N 39°27' W 000°19'0 0.0
2015-Apr-19 13:33N 39°27' W 000°19'0 0.0
2015-Apr-19 12:33N 39°27' W 000°19'0 0.0
2015-Apr-19 11:33N 39°27' W 000°19'0 0.0
2015-Apr-19 10:33N 39°27' W 000°19'0 0.0
2015-Apr-19 09:33N 39°27' W 000°19'0 0.0
2015-Apr-19 08:33N 39°27' W 000°19'6 6.3
2015-Apr-19 07:33N 39°24' W 000°12'5613.4
2015-Apr-19 03:23N 38°33' E 000°19'1517.3
2015-Apr-19 02:33N 38°21' E 000°08'1717.1
2015-Apr-19 01:33N 38°06' W 000°03'1616.7
2015-Apr-19 00:34N 37°52' W 000°14'1717.0
2015-Apr-18 23:34N 37°38' W 000°26'1717.1
2015-Apr-18 22:33N 37°26' W 000°41'1717.2
2015-Apr-18 21:34N 37°15' W 000°57'1817.3
2015-Apr-18 20:31N 37°03' W 001°15'3517.5
2015-Apr-18 18:33N 36°39' W 001°46'17117.1
2015-Apr-18 08:33N 35°60' W 005°12'16 1.8
2015-Apr-17 23:29N 35°55' W 005°32'5 0.5
2015-Apr-17 13:33N 35°52' W 005°36'0 0.0
2015-Apr-17 12:26N 35°52' W 005°36'31 2.1
2015-Apr-16 21:14N 35°52' W 006°15'197 9.0
2015-Apr-15 23:20N 37°39' W 009°41'810.6
2015-Apr-15 22:33N 37°48' W 009°41'1110.7
2015-Apr-15 21:33N 37°58' W 009°41'1110.7
2015-Apr-15 20:33N 38°09' W 009°42'1110.7
2015-Apr-15 19:33N 38°20' W 009°40'1110.8
2015-Apr-15 18:33N 38°28' W 009°31'1010.2
2015-Apr-15 17:33N 38°36' W 009°24'1212.0
2015-Apr-15 16:33N 38°42' W 009°10'0 0.4
2015-Apr-15 15:29N 38°42' W 009°10'0 0.0
2015-Apr-15 14:33N 38°42' W 009°10'0 0.0
2015-Apr-15 13:33N 38°42' W 009°10'0 0.0
2015-Apr-15 12:33N 38°42' W 009°10'0 0.0
2015-Apr-15 11:33N 38°42' W 009°10'0 0.0
2015-Apr-15 10:33N 38°42' W 009°10'0 0.0
2015-Apr-15 09:33N 38°42' W 009°10'0 0.0
2015-Apr-15 08:33N 38°42' W 009°10'0 0.0
2015-Apr-15 07:33N 38°42' W 009°10'0 0.0
2015-Apr-15 06:33N 38°42' W 009°10'0 0.0
2015-Apr-15 05:33N 38°42' W 009°10'8 7.7
2015-Apr-15 04:34N 38°40' W 009°19'7 6.6
2015-Apr-15 03:33N 38°40' W 009°28'10 9.8
2015-Apr-15 02:31N 38°36' W 009°40'1111.9
2015-Apr-15 01:34N 38°35' W 009°54'1211.8
2015-Apr-15 00:33N 38°33' W 010°09'1211.7
2015-Apr-14 23:33N 38°32' W 010°24'1111.2
2015-Apr-14 22:32N 38°30' W 010°39'61616.2
2015-Apr-13 08:33N 36°47' W 023°25'1717.4
2015-Apr-13 07:33N 36°44' W 023°46'1717.1
2015-Apr-13 06:33N 36°40' W 024°07'1717.0
2015-Apr-13 05:34N 36°36' W 024°28'1716.8
2015-Apr-13 04:33N 36°32' W 024°48'1716.6
2015-Apr-13 03:33N 36°28' W 025°08'1717.1
2015-Apr-13 02:34N 36°24' W 025°29'1717.3
2015-Apr-13 01:33N 36°20' W 025°50'1717.1
2015-Apr-13 00:33N 36°15' W 026°10'1220.6
2015-Apr-13 00:00N 36°12' W 026°24'43618.2 010 / 251023.010.8 3.013.0 9.117.0
2015-Apr-12 00:00N 34°06' W 034°54'   010 / 191024.010.8 2.016.010.420.0
Track history (hours):
 
Tides and Currents Weather Stations Pressure Air Temp Water Temp Dewpoint Dewpoint Depression Visibility Wind Speed Wind Dir Waves Ship Positions

Seaspan Chiwan

Last reported at 2015-Apr-21 20:33 UTC. Time now 2015-Apr-21 21:01 UTC.
Position N 38°60' E 009°27'.

Length 260 m; draft 9.4 m.

Type: Cargo ship. MMSI: 477014500.

Date/timePositionNaut miles runAvg speedWind from/ knotsBaromVisibWave heightAir tempDewpointWater temp
2015-Apr-21 20:33N 38°60' E 009°27'1514.8
2015-Apr-21 19:33N 39°06' E 009°11'8 7.9
2015-Apr-21 18:31N 39°13' E 009°04'0 0.0
2015-Apr-21 17:31N 39°13' E 009°04'0 0.0
2015-Apr-21 16:31N 39°13' E 009°04'0 0.0
2015-Apr-21 15:28N 39°13' E 009°04'0 0.0
2015-Apr-21 14:31N 39°13' E 009°04'0 0.0
2015-Apr-21 13:31N 39°13' E 009°04'0 0.0
2015-Apr-21 12:31N 39°13' E 009°04'0 0.0
2015-Apr-21 11:31N 39°13' E 009°04'0 0.0
2015-Apr-21 10:31N 39°13' E 009°04'0 0.0
2015-Apr-21 09:31N 39°13' E 009°04'0 0.0
2015-Apr-21 08:31N 39°13' E 009°04'0 0.0
2015-Apr-21 07:31N 39°13' E 009°04'0 0.0
2015-Apr-21 06:31N 39°13' E 009°04'0 0.0
2015-Apr-21 05:31N 39°13' E 009°04'0 0.0
2015-Apr-21 04:31N 39°13' E 009°04'0 0.0
2015-Apr-21 03:33N 39°13' E 009°04'0 0.3
2015-Apr-21 02:33N 39°13' E 009°04'6 6.3
2015-Apr-21 01:33N 39°07' E 009°07'1313.3
2015-Apr-21 00:33N 38°54' E 009°04'1616.4
2015-Apr-20 23:33N 38°41' E 008°51'1816.5
2015-Apr-20 22:28N 38°37' E 008°29'1817.9
2015-Apr-20 21:27N 38°38' E 008°06'20618.9
2015-Apr-20 10:33N 38°58' E 003°43'1919.0
2015-Apr-20 09:33N 38°60' E 003°18'1919.4
2015-Apr-20 08:33N 39°03' E 002°54'1918.9
2015-Apr-20 07:33N 39°07' E 002°30'1919.1
2015-Apr-20 06:33N 39°11' E 002°06'1919.1
2015-Apr-20 05:33N 39°15' E 001°42'1919.0
2015-Apr-20 04:33N 39°17' E 001°17'1918.9
2015-Apr-20 03:33N 39°18' E 000°53'4319.4
2015-Apr-20 01:20N 39°24' W 000°02'810.0
2015-Apr-20 00:32N 39°24' W 000°12'6 5.7
2015-Apr-19 23:33N 39°27' W 000°19'0 0.1
2015-Apr-19 22:33N 39°27' W 000°19'0 0.0
2015-Apr-19 21:33N 39°27' W 000°19'0 0.0
2015-Apr-19 20:33N 39°27' W 000°19'0 0.0
2015-Apr-19 19:30N 39°27' W 000°19'0 0.0
2015-Apr-19 18:33N 39°27' W 000°19'0 0.0
2015-Apr-19 17:33N 39°27' W 000°19'0 0.0
2015-Apr-19 16:33N 39°27' W 000°19'0 0.0
2015-Apr-19 15:33N 39°27' W 000°19'0 0.0
2015-Apr-19 14:33N 39°27' W 000°19'0 0.0
2015-Apr-19 13:33N 39°27' W 000°19'0 0.0
2015-Apr-19 12:33N 39°27' W 000°19'0 0.0
2015-Apr-19 11:33N 39°27' W 000°19'0 0.0
2015-Apr-19 10:33N 39°27' W 000°19'0 0.0
2015-Apr-19 09:33N 39°27' W 000°19'0 0.0
2015-Apr-19 08:33N 39°27' W 000°19'6 6.3
2015-Apr-19 07:33N 39°24' W 000°12'5613.4
2015-Apr-19 03:23N 38°33' E 000°19'1517.3
2015-Apr-19 02:33N 38°21' E 000°08'1717.1
2015-Apr-19 01:33N 38°06' W 000°03'1616.7
2015-Apr-19 00:34N 37°52' W 000°14'1717.0
2015-Apr-18 23:34N 37°38' W 000°26'1717.1
2015-Apr-18 22:33N 37°26' W 000°41'1717.2
2015-Apr-18 21:34N 37°15' W 000°57'1817.3
2015-Apr-18 20:31N 37°03' W 001°15'3517.5
2015-Apr-18 18:33N 36°39' W 001°46'17117.1
2015-Apr-18 08:33N 35°60' W 005°12'16 1.8
2015-Apr-17 23:29N 35°55' W 005°32'5 0.5
2015-Apr-17 13:33N 35°52' W 005°36'0 0.0
2015-Apr-17 12:26N 35°52' W 005°36'31 2.1
2015-Apr-16 21:14N 35°52' W 006°15'197 9.0
2015-Apr-15 23:20N 37°39' W 009°41'810.6
2015-Apr-15 22:33N 37°48' W 009°41'1110.7
2015-Apr-15 21:33N 37°58' W 009°41'1110.7
2015-Apr-15 20:33N 38°09' W 009°42'1110.7
2015-Apr-15 19:33N 38°20' W 009°40'1110.8
2015-Apr-15 18:33N 38°28' W 009°31'1010.2
2015-Apr-15 17:33N 38°36' W 009°24'1212.0
2015-Apr-15 16:33N 38°42' W 009°10'0 0.4
2015-Apr-15 15:29N 38°42' W 009°10'0 0.0
2015-Apr-15 14:33N 38°42' W 009°10'0 0.0
2015-Apr-15 13:33N 38°42' W 009°10'0 0.0
2015-Apr-15 12:33N 38°42' W 009°10'0 0.0
2015-Apr-15 11:33N 38°42' W 009°10'0 0.0
2015-Apr-15 10:33N 38°42' W 009°10'0 0.0
2015-Apr-15 09:33N 38°42' W 009°10'0 0.0
2015-Apr-15 08:33N 38°42' W 009°10'0 0.0
2015-Apr-15 07:33N 38°42' W 009°10'0 0.0
2015-Apr-15 06:33N 38°42' W 009°10'0 0.0
2015-Apr-15 05:33N 38°42' W 009°10'8 7.7
2015-Apr-15 04:34N 38°40' W 009°19'7 6.6
2015-Apr-15 03:33N 38°40' W 009°28'10 9.8
2015-Apr-15 02:31N 38°36' W 009°40'1111.9
2015-Apr-15 01:34N 38°35' W 009°54'1211.8
2015-Apr-15 00:33N 38°33' W 010°09'1211.7
2015-Apr-14 23:33N 38°32' W 010°24'1111.2
2015-Apr-14 22:32N 38°30' W 010°39'61616.2
2015-Apr-13 08:33N 36°47' W 023°25'1717.4
2015-Apr-13 07:33N 36°44' W 023°46'1717.1
2015-Apr-13 06:33N 36°40' W 024°07'1717.0
2015-Apr-13 05:34N 36°36' W 024°28'1716.8
2015-Apr-13 04:33N 36°32' W 024°48'1716.6
2015-Apr-13 03:33N 36°28' W 025°08'1717.1
2015-Apr-13 02:34N 36°24' W 025°29'1717.3
2015-Apr-13 01:33N 36°20' W 025°50'1717.1
2015-Apr-13 00:33N 36°15' W 026°10'1220.6
2015-Apr-13 00:00N 36°12' W 026°24'43618.2 010 / 251023.010.8 3.013.0 9.117.0
2015-Apr-12 00:00N 34°06' W 034°54'   010 / 191024.010.8 2.016.010.420.0

Dump ship's entire track history